Accueil
METAR-TAF:

METAR-TAF

Aéroports :

Tripoli, Libye

Aéroport de Milaga

latitude: 32-54N, longitude: 13-17E, altitude: 11 m

Observation

Le bulletin a été fait il y a 1 heure et 1 minutes, à 00:50 UTC
Vent 1 kt de sud-est
Température 25°C
Humidité 83%
Pression 1015 hPa
Visibilité: 6000 m
Ciel clair

METAR: HLLM 190050Z 14001KT 6000 SKC 25/22 Q1015

Heure: 03:51 (01:51 UTC)

Prévision

Le bulletin a été fait il y a 2 heures et 51 minutes, à 23:00 UTC
Prévision valable du 19 à 00 UTC au 19 à 24 UTC
Vent 2 kt de direction variable
Visibilité: 8000 m
Evoluant progressivement
du 19 à 10 UTC au 19 à 12 UTC
Vent 12 kt de est/nord-est
Visibilité 10 km ou plus
Quelques nuages à une hauteur de 3000 ft
Evoluant progressivement
du 19 à 20 UTC au 19 à 22 UTC
Vent 2 kt de direction variable
Visibilité: 8000 m

TAF: HLLM 182300Z 1900/1924 VRB02KT 8000 NSC BECMG 1910/1912 06012KT 9999 FEW030 BECMG 1920/1922 VRB02KT 8000 NSC

Observations et prévisions météorologiques de plus de 4000 aéroports (messages METAR et TAF).

Les stations disponibles sont représentées par des disques jaunes et rouges sur la carte.

Passer la souris dessus pour voir le nom de la station.

Cliquer dessus pour voir les observations et prévisions météorologiques.

Pour changer de carte: cliquez sur les boutons verts avec une croix noire pour zoomer, sur le bouton vert avec un tiret pour effectuer un zoom arrière, ou sur les flèches vertes pour les cartes adjacentes.


METAR-TAF: